createdAt,value
2018-09-05T00:00:10.531Z,49.63
2018-09-05T00:02:39.530Z,51.90
2018-09-05T00:05:08.870Z,64.20
2018-09-05T00:07:37.771Z,55.90
2018-09-05T00:10:06.758Z,55.80
2018-09-05T00:12:35.917Z,59.73
2018-09-05T00:15:04.721Z,63.77
2018-09-05T00:17:33.933Z,52.43
2018-09-05T00:20:03.204Z,56.73
2018-09-05T00:22:32.297Z,56.23
2018-09-05T00:25:01.118Z,53.57
2018-09-05T00:27:59.420Z,51.80
2018-09-05T00:30:31.728Z,58.33
2018-09-05T00:33:01.118Z,52.90
2018-09-05T00:35:30.178Z,51.57
2018-09-05T00:37:58.951Z,52.50
2018-09-05T00:40:28.284Z,57.50
2018-09-05T00:42:57.027Z,54.87
2018-09-05T00:45:26.714Z,57.93
2018-09-05T00:47:55.535Z,55.63
2018-09-05T00:50:24.551Z,56.20
2018-09-05T00:52:53.571Z,51.60
2018-09-05T00:55:22.335Z,50.90
2018-09-05T00:57:51.164Z,58.00
2018-09-05T01:00:21.001Z,52.23
2018-09-05T01:02:50.768Z,52.50
2018-09-05T01:05:20.538Z,59.37
2018-09-05T01:07:50.308Z,58.63
2018-09-05T01:10:20.078Z,54.43
2018-09-05T01:12:49.280Z,60.40
2018-09-05T01:15:18.419Z,50.23
2018-09-05T01:17:47.593Z,52.23
2018-09-05T01:20:16.950Z,59.90
2018-09-05T01:22:45.928Z,53.50
2018-09-05T01:25:15.039Z,67.70
2018-09-05T01:27:44.336Z,52.37
2018-09-05T01:30:14.163Z,49.43
2018-09-05T01:32:42.938Z,53.23
2018-09-05T01:35:11.741Z,55.10
2018-09-05T01:37:41.035Z,53.47
2018-09-05T01:40:16.683Z,51.37
2018-09-05T01:42:45.547Z,54.33
2018-09-05T01:45:14.616Z,45.57
2018-09-05T01:47:43.770Z,53.10
2018-09-05T01:50:12.602Z,47.77
2018-09-05T01:52:41.388Z,65.13
2018-09-05T01:55:10.185Z,51.57
2018-09-05T01:57:38.929Z,49.50
2018-09-05T02:00:11.767Z,52.27
2018-09-05T02:02:40.904Z,56.23
2018-09-05T02:05:09.927Z,54.93
2018-09-05T02:07:38.674Z,42.83
2018-09-05T02:10:07.436Z,45.13
2018-09-05T02:12:36.745Z,55.10
2018-09-05T02:15:05.818Z,47.70
2018-09-05T02:17:35.354Z,59.97
2018-09-05T02:20:04.744Z,45.07
2018-09-05T02:22:34.128Z,51.33
2018-09-05T02:25:02.938Z,51.10
2018-09-05T02:27:32.043Z,49.37
2018-09-05T02:30:01.131Z,55.43
2018-09-05T02:32:29.927Z,41.90
2018-09-05T02:34:58.726Z,50.67
2018-09-05T02:37:28.103Z,44.67
2018-09-05T02:39:56.887Z,45.47
2018-09-05T02:42:25.687Z,42.40
2018-09-05T02:44:55.118Z,44.00
2018-09-05T02:47:24.909Z,49.90
2018-09-05T02:49:55.252Z,46.87
2018-09-05T02:52:24.451Z,43.47
2018-09-05T02:54:53.325Z,46.67
2018-09-05T02:57:22.287Z,44.47
2018-09-05T02:59:51.353Z,40.67
2018-09-05T03:02:20.176Z,41.20
2018-09-05T03:04:49.257Z,46.53
2018-09-05T03:07:18.007Z,45.27
2018-09-05T03:09:47.068Z,40.83
2018-09-05T03:12:21.033Z,41.87
2018-09-05T03:14:51.058Z,50.03
2018-09-05T03:17:20.427Z,50.53
2018-09-05T03:19:49.158Z,46.13
2018-09-05T03:22:17.913Z,45.27
2018-09-05T03:24:46.946Z,40.60
2018-09-05T03:27:16.439Z,40.90
2018-09-05T03:29:45.238Z,38.30
2018-09-05T03:32:15.036Z,43.70
2018-09-05T03:34:43.831Z,45.83
2018-09-05T03:37:12.674Z,49.67
2018-09-05T03:39:42.071Z,43.50
2018-09-05T03:42:10.856Z,36.60
2018-09-05T03:44:39.614Z,40.50
2018-09-05T03:47:09.039Z,40.50
2018-09-05T03:49:38.052Z,41.03
2018-09-05T03:52:07.158Z,44.13
2018-09-05T03:54:35.963Z,43.07
2018-09-05T03:57:04.704Z,40.93
2018-09-05T03:59:33.549Z,38.30
2018-09-05T04:02:02.360Z,39.93
2018-09-05T04:04:31.349Z,39.30
2018-09-05T04:07:00.402Z,38.83
2018-09-05T04:09:29.110Z,45.83
2018-09-05T04:11:57.994Z,36.93
2018-09-05T04:14:27.035Z,45.37
2018-09-05T04:16:55.873Z,40.87
2018-09-05T04:19:24.696Z,34.97
2018-09-05T04:21:53.847Z,37.63
2018-09-05T04:24:22.593Z,38.43
2018-09-05T04:26:51.634Z,34.90
2018-09-05T04:29:20.960Z,41.77
2018-09-05T04:31:49.816Z,38.80
2018-09-05T04:34:18.647Z,51.50
2018-09-05T04:36:47.809Z,38.40
2018-09-05T04:39:16.825Z,42.20
2018-09-05T04:41:45.684Z,42.13
2018-09-05T04:44:14.484Z,38.20
2018-09-05T04:46:47.742Z,41.40
2018-09-05T04:49:17.931Z,39.37
2018-09-05T04:51:46.678Z,39.30
2018-09-05T04:54:15.502Z,39.23
2018-09-05T04:56:44.642Z,41.73
2018-09-05T04:59:14.106Z,45.23
2018-09-05T05:01:43.695Z,45.83
2018-09-05T05:04:12.782Z,44.10
2018-09-05T05:06:42.069Z,36.50
2018-09-05T05:09:12.615Z,36.90
2018-09-05T05:11:42.092Z,38.77
2018-09-05T05:14:11.929Z,45.90
2018-09-05T05:16:40.911Z,48.30
2018-09-05T05:19:09.655Z,39.57
2018-09-05T05:21:38.770Z,39.07
2018-09-05T05:24:08.018Z,42.70
2018-09-05T05:26:37.210Z,40.77
2018-09-05T05:29:05.939Z,44.57
2018-09-05T05:31:35.133Z,44.17
2018-09-05T05:34:04.164Z,42.70
2018-09-05T05:36:32.886Z,45.73
2018-09-05T05:39:02.606Z,50.33
2018-09-05T05:41:34.331Z,44.97
2018-09-05T05:44:03.487Z,47.33
2018-09-05T05:46:32.442Z,50.67
2018-09-05T05:49:01.171Z,49.73
2018-09-05T05:51:29.893Z,48.10
2018-09-05T05:53:58.575Z,44.10
2018-09-05T05:56:27.601Z,44.37
2018-09-05T05:58:56.858Z,44.70
2018-09-05T06:01:25.937Z,41.00
2018-09-05T06:03:54.664Z,45.57
2018-09-05T06:06:23.431Z,43.80
2018-09-05T06:08:52.654Z,41.37
2018-09-05T06:11:21.457Z,44.90
2018-09-05T06:13:50.519Z,47.73
2018-09-05T06:16:19.463Z,51.53
2018-09-05T06:18:48.239Z,44.40
2018-09-05T06:21:17.073Z,40.87
2018-09-05T06:23:46.463Z,45.77
2018-09-05T06:26:15.243Z,55.77
2018-09-05T06:28:44.286Z,44.20
2018-09-05T06:31:13.247Z,40.77
2018-09-05T06:33:41.820Z,47.83
2018-09-05T06:36:10.590Z,42.23
2018-09-05T06:38:39.602Z,40.50
2018-09-05T06:41:09.142Z,44.23
2018-09-05T06:43:37.866Z,46.60
2018-09-05T06:46:06.896Z,42.33
2018-09-05T06:48:37.362Z,43.67
2018-09-05T06:51:07.381Z,42.30
2018-09-05T06:53:38.233Z,41.57
2018-09-05T06:56:06.965Z,45.20
2018-09-05T06:58:37.319Z,41.30
2018-09-05T07:01:06.133Z,41.20
2018-09-05T07:03:35.335Z,46.10
2018-09-05T07:06:04.088Z,37.27
2018-09-05T07:08:33.080Z,32.70
2018-09-05T07:11:01.887Z,35.37
2018-09-05T07:13:31.008Z,36.80
2018-09-05T07:15:59.882Z,39.13
2018-09-05T07:18:29.041Z,32.63
2018-09-05T07:21:05.684Z,34.50
2018-09-05T07:23:27.232Z,37.23
2018-09-05T07:25:55.981Z,31.63
2018-09-05T07:28:24.800Z,34.10
2018-09-05T07:30:53.652Z,28.53
2018-09-05T07:33:22.280Z,32.07
2018-09-05T07:35:51.367Z,33.70
2018-09-05T07:38:20.391Z,41.73
2018-09-05T07:40:49.179Z,44.07
2018-09-05T07:43:18.206Z,31.87
2018-09-05T07:45:47.231Z,28.33
2018-09-05T07:48:16.370Z,34.93
2018-09-05T07:50:45.199Z,31.80
2018-09-05T07:53:13.863Z,34.33
2018-09-05T07:55:42.843Z,29.87
2018-09-05T07:58:11.599Z,32.13
2018-09-05T08:00:40.573Z,29.07
2018-09-05T08:03:09.776Z,29.07
2018-09-05T08:05:38.527Z,28.23
2018-09-05T08:08:07.248Z,25.67
2018-09-05T08:10:36.343Z,30.60
2018-09-05T08:13:05.587Z,27.40
2018-09-05T08:15:34.703Z,27.30
2018-09-05T08:18:03.999Z,32.57
2018-09-05T08:20:32.712Z,25.67
2018-09-05T08:23:01.741Z,29.03
2018-09-05T08:25:30.785Z,27.00
2018-09-05T08:27:59.479Z,37.97
2018-09-05T08:30:28.285Z,25.53
2018-09-05T08:32:57.220Z,27.80
2018-09-05T08:35:26.213Z,24.80
2018-09-05T08:37:55.370Z,32.10
2018-09-05T08:40:24.694Z,24.33
2018-09-05T08:42:53.750Z,28.30
2018-09-05T08:45:22.693Z,27.67
2018-09-05T08:47:51.633Z,33.60
2018-09-05T08:50:20.559Z,24.00
2018-09-05T08:52:49.570Z,30.00
2018-09-05T08:55:18.448Z,22.60
2018-09-05T08:57:47.685Z,19.80
2018-09-05T09:00:16.374Z,18.80
2018-09-05T09:02:45.134Z,20.83
2018-09-05T09:05:14.123Z,18.10
2018-09-05T09:07:43.190Z,22.73
2018-09-05T09:10:12.521Z,21.97
2018-09-05T09:12:41.837Z,21.87
2018-09-05T09:15:10.698Z,16.73
2018-09-05T09:17:39.424Z,26.87
2018-09-05T09:20:08.254Z,13.63
2018-09-05T09:22:37.634Z,12.80
2018-09-05T09:25:06.354Z,16.50
2018-09-05T09:27:35.177Z,18.40
2018-09-05T09:30:04.449Z,16.83
2018-09-05T09:32:33.468Z,19.00
2018-09-05T09:35:02.829Z,26.60
2018-09-05T09:37:31.818Z,11.60
2018-09-05T09:40:00.568Z,14.13
2018-09-05T09:42:29.297Z,16.53
2018-09-05T09:44:58.080Z,8.40
2018-09-05T09:47:27.569Z,10.20
2018-09-05T09:49:57.129Z,11.80
2018-09-05T09:52:25.840Z,11.93
2018-09-05T09:54:54.572Z,13.30
2018-09-05T09:57:23.349Z,15.60
2018-09-05T09:59:52.326Z,15.90
2018-09-05T10:02:26.323Z,10.80
2018-09-05T10:05:00.540Z,11.30
2018-09-05T10:07:34.712Z,9.53
2018-09-05T10:10:08.712Z,8.50
2018-09-05T10:12:47.336Z,11.87
2018-09-05T10:15:22.333Z,10.10
2018-09-05T10:17:56.186Z,14.60
2018-09-05T10:20:24.913Z,11.30
2018-09-05T10:22:54.040Z,15.13
2018-09-05T10:25:22.719Z,10.00
2018-09-05T10:27:51.791Z,8.07
2018-09-05T10:30:20.536Z,10.80
2018-09-05T10:32:49.577Z,10.90
2018-09-05T10:35:19.235Z,8.83
2018-09-05T10:37:48.421Z,9.60
2018-09-05T10:40:17.444Z,8.50
2018-09-05T10:42:46.937Z,10.73
2018-09-05T10:45:15.663Z,12.17
2018-09-05T10:47:44.619Z,9.80
2018-09-05T10:50:13.699Z,8.67
2018-09-05T10:52:42.431Z,5.30
2018-09-05T10:55:11.888Z,6.70
2018-09-05T10:57:40.631Z,7.30
2018-09-05T11:00:09.861Z,7.47
2018-09-05T11:02:38.638Z,6.70
2018-09-05T11:05:07.435Z,5.10
2018-09-05T11:07:36.203Z,7.87
2018-09-05T11:10:04.935Z,6.63
2018-09-05T11:12:34.024Z,10.30
2018-09-05T11:15:06.502Z,10.50
2018-09-05T11:17:35.673Z,8.77
2018-09-05T11:20:04.866Z,10.93
2018-09-05T11:22:33.825Z,10.80
2018-09-05T11:25:02.821Z,8.70
2018-09-05T11:27:31.694Z,11.47
2018-09-05T11:30:00.721Z,9.70
2018-09-05T11:32:29.490Z,8.47
2018-09-05T11:34:59.368Z,6.20
2018-09-05T11:37:28.726Z,7.40
2018-09-05T11:39:57.689Z,6.97
2018-09-05T11:42:26.405Z,6.77
2018-09-05T11:44:55.320Z,6.47
2018-09-05T11:47:24.062Z,5.70
2018-09-05T11:49:52.805Z,5.70
2018-09-05T11:52:22.442Z,12.43
2018-09-05T11:54:51.552Z,6.37
2018-09-05T11:57:20.624Z,7.60
2018-09-05T11:59:49.407Z,11.03
2018-09-05T12:02:18.828Z,8.93
2018-09-05T12:04:48.167Z,17.33
2018-09-05T12:07:16.998Z,27.27
2018-09-05T12:09:45.735Z,6.37
2018-09-05T12:12:14.623Z,8.43
2018-09-05T12:14:43.605Z,6.37
2018-09-05T12:17:13.041Z,8.73
2018-09-05T12:19:42.083Z,10.30
2018-09-05T12:22:10.845Z,6.10
2018-09-05T12:24:40.049Z,8.07
2018-09-05T12:27:09.336Z,15.83
2018-09-05T12:29:38.238Z,9.67
2018-09-05T12:32:07.330Z,10.83
2018-09-05T12:34:36.778Z,9.60
2018-09-05T12:37:05.781Z,6.80
2018-09-05T12:39:34.868Z,8.80
2018-09-05T12:42:03.808Z,8.37
2018-09-05T12:44:33.127Z,6.93
2018-09-05T12:47:02.109Z,12.33
2018-09-05T12:49:30.904Z,12.33
2018-09-05T12:51:59.614Z,8.20
2018-09-05T12:54:28.667Z,9.33
2018-09-05T12:56:57.730Z,6.53
2018-09-05T12:59:26.891Z,7.23
2018-09-05T13:01:56.050Z,8.53
2018-09-05T13:04:25.147Z,9.30
2018-09-05T13:06:54.496Z,10.33
2018-09-05T13:09:23.543Z,6.10
2018-09-05T13:11:52.594Z,5.73
2018-09-05T13:14:21.907Z,11.27
2018-09-05T13:16:52.182Z,9.13
2018-09-05T13:19:21.352Z,5.90
2018-09-05T13:21:50.544Z,7.80
2018-09-05T13:24:20.301Z,11.80
2018-09-05T13:26:49.337Z,6.53
2018-09-05T13:29:18.353Z,13.63
2018-09-05T13:31:47.321Z,10.10
2018-09-05T13:34:16.368Z,7.43
2018-09-05T13:36:45.493Z,8.27
2018-09-05T13:39:14.481Z,13.87
2018-09-05T13:41:43.458Z,8.70
2018-09-05T13:44:12.155Z,10.93
2018-09-05T13:46:41.208Z,8.70
2018-09-05T13:49:09.904Z,12.40
2018-09-05T13:51:39.024Z,10.70
2018-09-05T13:54:08.505Z,12.07
2018-09-05T13:56:37.640Z,6.47
2018-09-05T13:59:06.931Z,9.80
2018-09-05T14:01:36.011Z,12.53
2018-09-05T14:04:04.760Z,8.20
2018-09-05T14:06:33.812Z,21.40
2018-09-05T14:09:02.952Z,4.80
2018-09-05T14:11:31.680Z,7.17
2018-09-05T14:14:01.003Z,6.00
2018-09-05T14:16:29.722Z,4.90
2018-09-05T14:18:58.465Z,6.10
2018-09-05T14:21:27.417Z,7.57
2018-09-05T14:23:56.999Z,3.90
2018-09-05T14:26:25.783Z,6.33
2018-09-05T14:28:54.585Z,6.30
2018-09-05T14:31:23.824Z,5.53
2018-09-05T14:33:52.638Z,10.53
2018-09-05T14:36:21.392Z,5.63
2018-09-05T14:38:50.084Z,9.00
2018-09-05T14:41:19.032Z,4.83
2018-09-05T14:43:47.795Z,8.17
2018-09-05T14:46:17.080Z,8.03
2018-09-05T14:48:45.772Z,5.53
2018-09-05T14:51:14.736Z,5.93
2018-09-05T14:53:43.469Z,6.77
2018-09-05T14:56:12.160Z,15.73
2018-09-05T14:58:40.843Z,11.80
2018-09-05T15:01:09.947Z,6.37
2018-09-05T15:03:38.728Z,4.70
2018-09-05T15:06:07.954Z,12.83
2018-09-05T15:08:36.984Z,13.47
2018-09-05T15:11:05.990Z,4.77
2018-09-05T15:13:34.739Z,7.23
2018-09-05T15:16:03.430Z,8.20
2018-09-05T15:18:32.408Z,6.77
2018-09-05T15:21:01.439Z,7.27
2018-09-05T15:23:30.180Z,13.17
2018-09-05T15:25:59.014Z,5.13
2018-09-05T15:28:28.212Z,23.90
2018-09-05T15:30:56.931Z,13.50
2018-09-05T15:33:25.995Z,10.20
2018-09-05T15:35:55.283Z,10.80
2018-09-05T15:38:24.304Z,4.30
2018-09-05T15:40:53.069Z,7.33
2018-09-05T15:43:22.357Z,8.30
2018-09-05T15:45:51.619Z,12.90
2018-09-05T15:48:20.976Z,13.60
2018-09-05T15:50:49.654Z,7.70
2018-09-05T15:53:18.723Z,7.00
2018-09-05T15:55:48.415Z,10.33
2018-09-05T15:58:17.136Z,5.77
2018-09-05T16:00:46.180Z,7.00
2018-09-05T16:03:15.090Z,5.93
2018-09-05T16:05:44.224Z,5.40
2018-09-05T16:08:13.733Z,9.67
2018-09-05T16:10:42.490Z,9.43
2018-09-05T16:13:11.590Z,6.00
2018-09-05T16:15:40.833Z,5.90
2018-09-05T16:18:09.990Z,11.80
2018-09-05T16:20:38.730Z,10.07
2018-09-05T16:23:08.337Z,5.13
2018-09-05T16:25:37.646Z,11.27
2018-09-05T16:28:06.393Z,6.90
2018-09-05T16:30:35.149Z,11.47
2018-09-05T16:33:04.929Z,10.93
2018-09-05T16:35:33.670Z,32.60
2018-09-05T16:38:02.668Z,7.57
2018-09-05T16:40:31.414Z,10.13
2018-09-05T16:43:00.421Z,17.63
2018-09-05T16:45:29.415Z,10.13
2018-09-05T16:47:58.701Z,5.80
2018-09-05T16:50:27.411Z,6.03
2018-09-05T16:52:56.198Z,8.20
2018-09-05T16:55:24.934Z,11.33
2018-09-05T16:57:54.177Z,12.23
2018-09-05T17:00:22.850Z,7.70
2018-09-05T17:02:51.591Z,8.93
2018-09-05T17:05:20.603Z,5.70
2018-09-05T17:07:49.324Z,3.60
2018-09-05T17:10:18.681Z,22.13
2018-09-05T17:12:47.782Z,6.10
2018-09-05T17:15:16.838Z,9.30
2018-09-05T17:17:45.901Z,5.10
2018-09-05T17:20:14.855Z,14.73
2018-09-05T17:22:43.945Z,14.00
2018-09-05T17:25:15.788Z,7.10
2018-09-05T17:27:44.814Z,14.37
2018-09-05T17:30:13.765Z,5.10
2018-09-05T17:32:42.546Z,7.90
2018-09-05T17:35:11.724Z,8.83
2018-09-05T17:37:40.715Z,11.83
2018-09-05T17:40:09.499Z,6.27
2018-09-05T17:42:38.198Z,7.43
2018-09-05T17:45:07.202Z,12.97
2018-09-05T17:47:35.895Z,5.77
2018-09-05T17:50:04.591Z,7.53
2018-09-05T17:52:33.706Z,8.40
2018-09-05T17:55:02.407Z,8.00
2018-09-05T17:57:31.140Z,8.50
2018-09-05T18:00:00.676Z,6.87
2018-09-05T18:02:29.359Z,12.17
2018-09-05T18:04:58.443Z,7.13
2018-09-05T18:07:27.474Z,8.20
2018-09-05T18:09:56.268Z,19.40
2018-09-05T18:12:24.984Z,7.00
2018-09-05T18:14:53.850Z,11.37
2018-09-05T18:17:22.559Z,8.40
2018-09-05T18:19:51.776Z,5.87
2018-09-05T18:22:20.746Z,15.00
2018-09-05T18:24:49.786Z,12.17
2018-09-05T18:27:18.792Z,13.90
2018-09-05T18:29:47.808Z,8.43
2018-09-05T18:32:17.117Z,10.97
2018-09-05T18:34:46.098Z,11.70
2018-09-05T18:37:14.819Z,8.10
2018-09-05T18:39:43.594Z,8.73
2018-09-05T18:42:12.326Z,12.40
2018-09-05T18:44:41.836Z,17.40
2018-09-05T18:47:10.588Z,10.00
2018-09-05T18:49:39.283Z,9.03
2018-09-05T18:52:07.999Z,5.00
2018-09-05T18:54:37.536Z,24.83
2018-09-05T18:57:08.452Z,8.60
2018-09-05T18:59:37.532Z,8.30
2018-09-05T19:02:06.548Z,10.97
2018-09-05T19:04:35.554Z,8.23
2018-09-05T19:07:04.281Z,8.57
2018-09-05T19:09:33.088Z,6.90
2018-09-05T19:12:02.270Z,14.57
2018-09-05T19:14:30.974Z,13.67
2018-09-05T19:16:59.680Z,6.17
2018-09-05T19:19:28.450Z,8.40
2018-09-05T19:21:57.170Z,11.37
2018-09-05T19:24:26.230Z,10.17
2018-09-05T19:26:55.205Z,7.07
2018-09-05T19:29:23.937Z,9.90
2018-09-05T19:31:52.744Z,10.50
2018-09-05T19:34:22.141Z,8.60
2018-09-05T19:36:50.900Z,7.87
2018-09-05T19:39:20.143Z,9.87
2018-09-05T19:41:48.967Z,7.10
2018-09-05T19:44:18.022Z,8.10
2018-09-05T19:46:47.107Z,6.40
2018-09-05T19:49:16.231Z,9.50
2018-09-05T19:51:44.874Z,9.40
2018-09-05T19:54:13.633Z,7.50
2018-09-05T19:56:42.347Z,11.73
2018-09-05T19:59:11.091Z,9.80
2018-09-05T20:01:40.089Z,9.07
2018-09-05T20:04:09.052Z,7.90
2018-09-05T20:06:38.092Z,7.30
2018-09-05T20:09:07.756Z,8.50
2018-09-05T20:11:36.627Z,9.50
2018-09-05T20:14:05.649Z,7.70
2018-09-05T20:16:34.651Z,7.27
2018-09-05T20:19:03.896Z,12.77
2018-09-05T20:21:33.754Z,13.83
2018-09-05T20:24:02.954Z,8.40
2018-09-05T20:26:31.728Z,12.03
2018-09-05T20:29:00.514Z,8.70
2018-09-05T20:31:29.341Z,10.33
2018-09-05T20:33:58.802Z,10.63
2018-09-05T20:36:28.539Z,11.53
2018-09-05T20:38:57.270Z,13.67
2018-09-05T20:41:26.367Z,11.53
2018-09-05T20:43:55.477Z,11.43
2018-09-05T20:46:24.434Z,12.10
2018-09-05T20:48:53.219Z,8.50
2018-09-05T20:51:22.777Z,11.27
2018-09-05T20:53:51.575Z,12.53
2018-09-05T20:56:20.321Z,13.80
2018-09-05T20:58:49.560Z,25.40
2018-09-05T21:01:18.659Z,9.57
2018-09-05T21:03:47.916Z,13.30
2018-09-05T21:06:17.190Z,13.27
2018-09-05T21:08:52.498Z,11.37
2018-09-05T21:11:21.567Z,17.23
2018-09-05T21:13:50.451Z,9.27
2018-09-05T21:16:19.808Z,18.43
2018-09-05T21:18:49.133Z,9.30
2018-09-05T21:21:17.940Z,25.87
2018-09-05T21:23:46.680Z,15.03
2018-09-05T21:26:15.750Z,17.03
2018-09-05T21:28:44.514Z,9.87
2018-09-05T21:31:13.928Z,22.87
2018-09-05T21:33:42.718Z,14.77
2018-09-05T21:36:11.709Z,9.87
2018-09-05T21:38:40.457Z,13.47
2018-09-05T21:41:09.247Z,13.90
2018-09-05T21:43:38.048Z,12.23
2018-09-05T21:46:07.458Z,9.47
2018-09-05T21:48:36.202Z,10.70
2018-09-05T21:51:04.994Z,13.20
2018-09-05T21:53:33.972Z,18.13
2018-09-05T21:56:03.257Z,13.13
2018-09-05T21:58:35.015Z,18.53
2018-09-05T22:01:04.344Z,13.13
2018-09-05T22:03:33.128Z,11.47
2018-09-05T22:06:08.124Z,15.23
2018-09-05T22:08:37.260Z,18.57
2018-09-05T22:11:11.234Z,16.23
2018-09-05T22:13:40.019Z,15.07
2018-09-05T22:16:09.063Z,13.03
2018-09-05T22:18:38.768Z,14.80
2018-09-05T22:21:07.672Z,13.80
2018-09-05T22:23:36.684Z,10.50
2018-09-05T22:26:05.486Z,12.30
2018-09-05T22:28:34.891Z,14.40
2018-09-05T22:31:03.906Z,11.23
2018-09-05T22:33:33.491Z,15.80
2018-09-05T22:36:02.758Z,12.63
2018-09-05T22:38:31.547Z,15.90
2018-09-05T22:41:00.289Z,16.10
2018-09-05T22:43:40.463Z,13.87
2018-09-05T22:46:20.845Z,12.37
2018-09-05T22:49:01.155Z,18.83
2018-09-05T22:52:13.347Z,14.03
2018-09-05T22:56:59.660Z,20.83
2018-09-05T23:00:22.151Z,11.90
2018-09-05T23:03:59.311Z,15.37
2018-09-05T23:08:40.829Z,13.47
2018-09-05T23:11:56.183Z,13.57
2018-09-05T23:14:36.743Z,14.00
2018-09-05T23:17:16.594Z,23.20
2018-09-05T23:20:17.156Z,16.50
2018-09-05T23:22:57.338Z,17.23
2018-09-05T23:25:26.157Z,18.00
2018-09-05T23:27:55.289Z,18.80
2018-09-05T23:30:24.048Z,14.90
2018-09-05T23:32:52.857Z,17.47
2018-09-05T23:35:21.824Z,18.60
2018-09-05T23:37:50.626Z,19.67
2018-09-05T23:40:19.365Z,19.13
2018-09-05T23:42:48.118Z,17.00
2018-09-05T23:45:16.884Z,17.00
2018-09-05T23:47:45.613Z,15.53
2018-09-05T23:50:14.389Z,18.50
2018-09-05T23:52:43.445Z,15.33
2018-09-05T23:55:13.033Z,17.13
2018-09-05T23:57:42.753Z,18.57
